sensor_id;sensor_type;location;lat;lon;timestamp;P1;durP1;ratioP1;P2;durP2;ratioP2
13943;SDS011;7044;53.286;8.534;2023-05-07T00:00:42;13.80;;;9.95;;
13943;SDS011;7044;53.286;8.534;2023-05-07T00:03:10;16.92;;;10.90;;
13943;SDS011;7044;53.286;8.534;2023-05-07T00:05:38;14.05;;;10.27;;
13943;SDS011;7044;53.286;8.534;2023-05-07T00:08:06;12.85;;;10.60;;
13943;SDS011;7044;53.286;8.534;2023-05-07T00:10:33;15.23;;;9.85;;
13943;SDS011;7044;53.286;8.534;2023-05-07T00:13:00;16.58;;;10.00;;
13943;SDS011;7044;53.286;8.534;2023-05-07T00:15:26;13.55;;;10.45;;
13943;SDS011;7044;53.286;8.534;2023-05-07T00:17:53;15.38;;;9.50;;
13943;SDS011;7044;53.286;8.534;2023-05-07T00:20:23;14.40;;;10.00;;
13943;SDS011;7044;53.286;8.534;2023-05-07T00:22:50;14.57;;;10.40;;
13943;SDS011;7044;53.286;8.534;2023-05-07T00:25:18;14.88;;;10.32;;
13943;SDS011;7044;53.286;8.534;2023-05-07T00:27:45;13.98;;;10.02;;
13943;SDS011;7044;53.286;8.534;2023-05-07T00:30:12;14.00;;;9.55;;
13943;SDS011;7044;53.286;8.534;2023-05-07T00:32:39;12.52;;;9.60;;
13943;SDS011;7044;53.286;8.534;2023-05-07T00:35:07;13.35;;;9.25;;
13943;SDS011;7044;53.286;8.534;2023-05-07T00:37:35;12.52;;;9.88;;
13943;SDS011;7044;53.286;8.534;2023-05-07T00:40:03;13.90;;;9.75;;
13943;SDS011;7044;53.286;8.534;2023-05-07T00:42:32;14.63;;;10.05;;
13943;SDS011;7044;53.286;8.534;2023-05-07T00:44:59;11.25;;;9.20;;
13943;SDS011;7044;53.286;8.534;2023-05-07T00:47:25;13.95;;;9.70;;
13943;SDS011;7044;53.286;8.534;2023-05-07T00:49:52;15.55;;;9.10;;
13943;SDS011;7044;53.286;8.534;2023-05-07T00:52:19;12.15;;;9.45;;
13943;SDS011;7044;53.286;8.534;2023-05-07T00:54:49;13.65;;;9.48;;
13943;SDS011;7044;53.286;8.534;2023-05-07T00:57:15;13.63;;;9.07;;
13943;SDS011;7044;53.286;8.534;2023-05-07T00:59:42;13.50;;;10.00;;
13943;SDS011;7044;53.286;8.534;2023-05-07T01:02:09;14.95;;;9.68;;
13943;SDS011;7044;53.286;8.534;2023-05-07T01:04:36;13.38;;;9.45;;
13943;SDS011;7044;53.286;8.534;2023-05-07T01:07:03;13.10;;;9.30;;
13943;SDS011;7044;53.286;8.534;2023-05-07T01:09:30;16.05;;;10.10;;
13943;SDS011;7044;53.286;8.534;2023-05-07T01:12:01;16.90;;;9.43;;
13943;SDS011;7044;53.286;8.534;2023-05-07T01:14:29;13.23;;;9.23;;
13943;SDS011;7044;53.286;8.534;2023-05-07T01:16:58;15.50;;;9.98;;
13943;SDS011;7044;53.286;8.534;2023-05-07T01:19:25;14.55;;;10.15;;
13943;SDS011;7044;53.286;8.534;2023-05-07T01:21:52;13.15;;;9.52;;
13943;SDS011;7044;53.286;8.534;2023-05-07T01:24:28;11.80;;;9.82;;
13943;SDS011;7044;53.286;8.534;2023-05-07T01:26:56;14.35;;;10.95;;
13943;SDS011;7044;53.286;8.534;2023-05-07T01:29:23;13.13;;;9.65;;
13943;SDS011;7044;53.286;8.534;2023-05-07T01:31:50;12.60;;;9.85;;
13943;SDS011;7044;53.286;8.534;2023-05-07T01:34:18;13.15;;;9.95;;
13943;SDS011;7044;53.286;8.534;2023-05-07T01:36:47;12.63;;;10.25;;
13943;SDS011;7044;53.286;8.534;2023-05-07T01:39:14;14.40;;;10.80;;
13943;SDS011;7044;53.286;8.534;2023-05-07T01:41:43;16.10;;;10.00;;
13943;SDS011;7044;53.286;8.534;2023-05-07T01:46:39;12.70;;;9.60;;
13943;SDS011;7044;53.286;8.534;2023-05-07T01:49:06;14.35;;;10.57;;
13943;SDS011;7044;53.286;8.534;2023-05-07T01:51:33;14.82;;;10.95;;
13943;SDS011;7044;53.286;8.534;2023-05-07T01:54:00;14.32;;;10.20;;
13943;SDS011;7044;53.286;8.534;2023-05-07T01:56:27;13.52;;;9.70;;
13943;SDS011;7044;53.286;8.534;2023-05-07T01:58:55;12.02;;;9.30;;
13943;SDS011;7044;53.286;8.534;2023-05-07T02:01:22;13.18;;;10.02;;
13943;SDS011;7044;53.286;8.534;2023-05-07T02:03:49;12.75;;;10.05;;
13943;SDS011;7044;53.286;8.534;2023-05-07T02:06:16;15.13;;;9.88;;
13943;SDS011;7044;53.286;8.534;2023-05-07T02:08:42;13.20;;;9.80;;
13943;SDS011;7044;53.286;8.534;2023-05-07T02:11:09;14.25;;;10.05;;
13943;SDS011;7044;53.286;8.534;2023-05-07T02:13:36;12.55;;;9.45;;
13943;SDS011;7044;53.286;8.534;2023-05-07T02:16:05;12.95;;;10.02;;
13943;SDS011;7044;53.286;8.534;2023-05-07T02:18:32;13.27;;;9.65;;
13943;SDS011;7044;53.286;8.534;2023-05-07T02:20:58;12.98;;;9.40;;
13943;SDS011;7044;53.286;8.534;2023-05-07T02:23:25;14.73;;;9.52;;
13943;SDS011;7044;53.286;8.534;2023-05-07T02:25:52;14.15;;;10.60;;
13943;SDS011;7044;53.286;8.534;2023-05-07T02:28:19;14.73;;;9.40;;
13943;SDS011;7044;53.286;8.534;2023-05-07T02:30:45;11.80;;;8.93;;
13943;SDS011;7044;53.286;8.534;2023-05-07T02:33:13;14.05;;;10.50;;
13943;SDS011;7044;53.286;8.534;2023-05-07T02:35:40;16.58;;;9.77;;
13943;SDS011;7044;53.286;8.534;2023-05-07T02:38:07;13.25;;;9.75;;
13943;SDS011;7044;53.286;8.534;2023-05-07T02:40:35;14.73;;;9.50;;
13943;SDS011;7044;53.286;8.534;2023-05-07T02:43:03;13.18;;;9.35;;
13943;SDS011;7044;53.286;8.534;2023-05-07T02:45:30;14.13;;;8.90;;
13943;SDS011;7044;53.286;8.534;2023-05-07T02:47:57;14.05;;;10.00;;
13943;SDS011;7044;53.286;8.534;2023-05-07T02:50:25;12.77;;;9.10;;
13943;SDS011;7044;53.286;8.534;2023-05-07T02:52:52;13.23;;;9.40;;
13943;SDS011;7044;53.286;8.534;2023-05-07T02:55:19;14.05;;;9.70;;
13943;SDS011;7044;53.286;8.534;2023-05-07T02:57:46;12.95;;;9.48;;
13943;SDS011;7044;53.286;8.534;2023-05-07T03:00:13;14.93;;;9.25;;
13943;SDS011;7044;53.286;8.534;2023-05-07T03:02:42;12.90;;;9.35;;
13943;SDS011;7044;53.286;8.534;2023-05-07T03:05:09;13.80;;;9.40;;
13943;SDS011;7044;53.286;8.534;2023-05-07T03:07:38;15.90;;;9.35;;
13943;SDS011;7044;53.286;8.534;2023-05-07T03:10:06;12.90;;;9.45;;
13943;SDS011;7044;53.286;8.534;2023-05-07T03:12:33;13.65;;;9.25;;
13943;SDS011;7044;53.286;8.534;2023-05-07T03:15:00;12.57;;;8.98;;
13943;SDS011;7044;53.286;8.534;2023-05-07T03:17:27;18.67;;;9.68;;
13943;SDS011;7044;53.286;8.534;2023-05-07T03:19:54;13.38;;;9.02;;
13943;SDS011;7044;53.286;8.534;2023-05-07T03:22:21;13.38;;;8.82;;
13943;SDS011;7044;53.286;8.534;2023-05-07T03:24:49;13.45;;;9.18;;
13943;SDS011;7044;53.286;8.534;2023-05-07T03:27:15;11.63;;;7.95;;
13943;SDS011;7044;53.286;8.534;2023-05-07T03:29:42;12.13;;;8.57;;
13943;SDS011;7044;53.286;8.534;2023-05-07T03:32:09;11.05;;;8.50;;
13943;SDS011;7044;53.286;8.534;2023-05-07T03:34:36;12.57;;;7.90;;
13943;SDS011;7044;53.286;8.534;2023-05-07T03:37:03;12.27;;;8.50;;
13943;SDS011;7044;53.286;8.534;2023-05-07T03:39:30;13.35;;;8.40;;
13943;SDS011;7044;53.286;8.534;2023-05-07T03:41:58;14.13;;;8.68;;
13943;SDS011;7044;53.286;8.534;2023-05-07T03:44:26;14.30;;;9.10;;
13943;SDS011;7044;53.286;8.534;2023-05-07T03:46:52;14.70;;;8.75;;
13943;SDS011;7044;53.286;8.534;2023-05-07T03:49:20;10.93;;;8.35;;
13943;SDS011;7044;53.286;8.534;2023-05-07T03:51:47;12.32;;;8.95;;
13943;SDS011;7044;53.286;8.534;2023-05-07T03:54:13;13.15;;;8.18;;
13943;SDS011;7044;53.286;8.534;2023-05-07T03:56:40;14.30;;;9.02;;
13943;SDS011;7044;53.286;8.534;2023-05-07T03:59:08;15.20;;;8.70;;
13943;SDS011;7044;53.286;8.534;2023-05-07T04:01:35;14.25;;;8.50;;
13943;SDS011;7044;53.286;8.534;2023-05-07T04:04:02;12.75;;;8.50;;
13943;SDS011;7044;53.286;8.534;2023-05-07T04:06:29;10.57;;;7.85;;
13943;SDS011;7044;53.286;8.534;2023-05-07T04:08:56;12.23;;;8.32;;
13943;SDS011;7044;53.286;8.534;2023-05-07T04:11:23;10.90;;;8.32;;
13943;SDS011;7044;53.286;8.534;2023-05-07T04:13:49;11.90;;;8.70;;
13943;SDS011;7044;53.286;8.534;2023-05-07T04:16:18;11.90;;;8.35;;
13943;SDS011;7044;53.286;8.534;2023-05-07T04:18:44;13.50;;;7.97;;
13943;SDS011;7044;53.286;8.534;2023-05-07T04:21:14;12.00;;;8.45;;
13943;SDS011;7044;53.286;8.534;2023-05-07T04:23:41;10.18;;;7.90;;
13943;SDS011;7044;53.286;8.534;2023-05-07T04:26:08;11.30;;;7.65;;
13943;SDS011;7044;53.286;8.534;2023-05-07T04:28:35;11.80;;;7.85;;
13943;SDS011;7044;53.286;8.534;2023-05-07T04:31:02;14.23;;;8.77;;
13943;SDS011;7044;53.286;8.534;2023-05-07T04:33:30;11.30;;;7.72;;
13943;SDS011;7044;53.286;8.534;2023-05-07T04:35:58;12.07;;;7.80;;
13943;SDS011;7044;53.286;8.534;2023-05-07T04:38:27;10.68;;;8.38;;
13943;SDS011;7044;53.286;8.534;2023-05-07T04:40:54;13.05;;;8.40;;
13943;SDS011;7044;53.286;8.534;2023-05-07T04:43:21;13.77;;;8.88;;
13943;SDS011;7044;53.286;8.534;2023-05-07T04:45:49;12.38;;;7.95;;
13943;SDS011;7044;53.286;8.534;2023-05-07T04:48:16;14.43;;;8.13;;
13943;SDS011;7044;53.286;8.534;2023-05-07T04:50:45;11.93;;;7.85;;
13943;SDS011;7044;53.286;8.534;2023-05-07T04:53:13;13.57;;;8.90;;
13943;SDS011;7044;53.286;8.534;2023-05-07T04:55:40;11.10;;;7.53;;
13943;SDS011;7044;53.286;8.534;2023-05-07T04:58:07;10.57;;;7.90;;
13943;SDS011;7044;53.286;8.534;2023-05-07T05:00:34;9.25;;;7.15;;
13943;SDS011;7044;53.286;8.534;2023-05-07T05:03:01;9.55;;;7.15;;
13943;SDS011;7044;53.286;8.534;2023-05-07T05:05:28;9.60;;;7.72;;
13943;SDS011;7044;53.286;8.534;2023-05-07T05:07:56;11.25;;;7.30;;
13943;SDS011;7044;53.286;8.534;2023-05-07T05:10:23;10.15;;;7.38;;
13943;SDS011;7044;53.286;8.534;2023-05-07T05:12:50;11.48;;;8.02;;
13943;SDS011;7044;53.286;8.534;2023-05-07T05:15:16;9.23;;;7.13;;
13943;SDS011;7044;53.286;8.534;2023-05-07T05:17:43;10.55;;;7.95;;
13943;SDS011;7044;53.286;8.534;2023-05-07T05:20:10;9.60;;;7.32;;
13943;SDS011;7044;53.286;8.534;2023-05-07T05:22:37;9.20;;;7.38;;
13943;SDS011;7044;53.286;8.534;2023-05-07T05:25:06;9.02;;;7.22;;
13943;SDS011;7044;53.286;8.534;2023-05-07T05:27:33;9.05;;;7.28;;
13943;SDS011;7044;53.286;8.534;2023-05-07T05:30:00;12.10;;;7.32;;
13943;SDS011;7044;53.286;8.534;2023-05-07T05:32:27;9.20;;;7.00;;
13943;SDS011;7044;53.286;8.534;2023-05-07T05:34:54;9.60;;;6.85;;
13943;SDS011;7044;53.286;8.534;2023-05-07T05:37:21;12.15;;;8.13;;
13943;SDS011;7044;53.286;8.534;2023-05-07T05:39:48;9.52;;;7.38;;
13943;SDS011;7044;53.286;8.534;2023-05-07T05:42:16;9.70;;;7.53;;
13943;SDS011;7044;53.286;8.534;2023-05-07T05:44:43;10.50;;;8.02;;
13943;SDS011;7044;53.286;8.534;2023-05-07T05:47:09;8.75;;;7.20;;
13943;SDS011;7044;53.286;8.534;2023-05-07T05:49:36;9.02;;;7.40;;
13943;SDS011;7044;53.286;8.534;2023-05-07T05:52:03;11.68;;;7.85;;
13943;SDS011;7044;53.286;8.534;2023-05-07T05:54:30;10.75;;;7.38;;
13943;SDS011;7044;53.286;8.534;2023-05-07T05:56:57;11.13;;;6.85;;
13943;SDS011;7044;53.286;8.534;2023-05-07T05:59:25;13.05;;;7.93;;
13943;SDS011;7044;53.286;8.534;2023-05-07T06:01:52;13.25;;;7.20;;
13943;SDS011;7044;53.286;8.534;2023-05-07T06:04:19;10.23;;;7.20;;
13943;SDS011;7044;53.286;8.534;2023-05-07T06:06:46;9.63;;;7.07;;
13943;SDS011;7044;53.286;8.534;2023-05-07T06:09:12;8.85;;;6.93;;
13943;SDS011;7044;53.286;8.534;2023-05-07T06:11:39;11.32;;;7.32;;
13943;SDS011;7044;53.286;8.534;2023-05-07T06:14:06;9.43;;;7.38;;
13943;SDS011;7044;53.286;8.534;2023-05-07T06:16:34;9.00;;;6.93;;
13943;SDS011;7044;53.286;8.534;2023-05-07T06:19:04;9.73;;;6.53;;
13943;SDS011;7044;53.286;8.534;2023-05-07T06:21:30;7.75;;;6.05;;
13943;SDS011;7044;53.286;8.534;2023-05-07T06:23:57;8.45;;;6.47;;
13943;SDS011;7044;53.286;8.534;2023-05-07T06:26:24;8.73;;;5.95;;
13943;SDS011;7044;53.286;8.534;2023-05-07T06:28:51;7.43;;;5.93;;
13943;SDS011;7044;53.286;8.534;2023-05-07T06:31:19;7.40;;;5.50;;
13943;SDS011;7044;53.286;8.534;2023-05-07T06:33:48;8.90;;;5.93;;
13943;SDS011;7044;53.286;8.534;2023-05-07T06:36:15;7.53;;;5.85;;
13943;SDS011;7044;53.286;8.534;2023-05-07T06:38:42;7.15;;;6.28;;
13943;SDS011;7044;53.286;8.534;2023-05-07T06:41:09;6.90;;;5.55;;
13943;SDS011;7044;53.286;8.534;2023-05-07T06:43:36;5.43;;;4.90;;
13943;SDS011;7044;53.286;8.534;2023-05-07T06:46:02;6.15;;;5.47;;
13943;SDS011;7044;53.286;8.534;2023-05-07T06:48:30;5.68;;;5.07;;
13943;SDS011;7044;53.286;8.534;2023-05-07T06:50:58;6.63;;;5.40;;
13943;SDS011;7044;53.286;8.534;2023-05-07T06:53:25;6.15;;;4.95;;
13943;SDS011;7044;53.286;8.534;2023-05-07T06:55:53;6.05;;;5.15;;
13943;SDS011;7044;53.286;8.534;2023-05-07T06:58:20;5.45;;;4.78;;
13943;SDS011;7044;53.286;8.534;2023-05-07T07:00:47;5.47;;;4.80;;
13943;SDS011;7044;53.286;8.534;2023-05-07T07:03:14;6.53;;;5.40;;
13943;SDS011;7044;53.286;8.534;2023-05-07T07:05:41;6.90;;;5.13;;
13943;SDS011;7044;53.286;8.534;2023-05-07T07:08:09;6.35;;;5.22;;
13943;SDS011;7044;53.286;8.534;2023-05-07T07:10:36;6.50;;;5.57;;
13943;SDS011;7044;53.286;8.534;2023-05-07T07:13:03;6.70;;;5.10;;
13943;SDS011;7044;53.286;8.534;2023-05-07T07:15:30;6.22;;;5.18;;
13943;SDS011;7044;53.286;8.534;2023-05-07T07:17:56;5.80;;;5.10;;
13943;SDS011;7044;53.286;8.534;2023-05-07T07:20:23;6.93;;;5.22;;
13943;SDS011;7044;53.286;8.534;2023-05-07T07:22:50;6.28;;;5.05;;
13943;SDS011;7044;53.286;8.534;2023-05-07T07:25:18;6.82;;;5.55;;
13943;SDS011;7044;53.286;8.534;2023-05-07T07:27:45;5.97;;;4.82;;
13943;SDS011;7044;53.286;8.534;2023-05-07T07:30:12;4.90;;;4.30;;
13943;SDS011;7044;53.286;8.534;2023-05-07T07:32:39;6.10;;;5.28;;
13943;SDS011;7044;53.286;8.534;2023-05-07T07:35:06;5.85;;;4.70;;
13943;SDS011;7044;53.286;8.534;2023-05-07T07:37:34;6.50;;;5.50;;
13943;SDS011;7044;53.286;8.534;2023-05-07T07:40:00;6.13;;;4.93;;
13943;SDS011;7044;53.286;8.534;2023-05-07T07:42:29;6.20;;;4.93;;
13943;SDS011;7044;53.286;8.534;2023-05-07T07:44:56;5.88;;;4.68;;
13943;SDS011;7044;53.286;8.534;2023-05-07T07:47:23;5.78;;;4.95;;
13943;SDS011;7044;53.286;8.534;2023-05-07T07:49:50;5.05;;;4.55;;
13943;SDS011;7044;53.286;8.534;2023-05-07T07:52:17;8.27;;;5.03;;
13943;SDS011;7044;53.286;8.534;2023-05-07T07:54:44;6.18;;;4.60;;
13943;SDS011;7044;53.286;8.534;2023-05-07T07:57:11;6.28;;;4.95;;
13943;SDS011;7044;53.286;8.534;2023-05-07T07:59:39;5.63;;;5.07;;
13943;SDS011;7044;53.286;8.534;2023-05-07T08:02:08;6.63;;;4.18;;
13943;SDS011;7044;53.286;8.534;2023-05-07T08:04:34;5.78;;;4.75;;
13943;SDS011;7044;53.286;8.534;2023-05-07T08:07:02;10.25;;;4.47;;
13943;SDS011;7044;53.286;8.534;2023-05-07T08:09:29;5.60;;;5.00;;
13943;SDS011;7044;53.286;8.534;2023-05-07T08:11:56;5.20;;;4.55;;
13943;SDS011;7044;53.286;8.534;2023-05-07T08:14:23;4.88;;;4.32;;
13943;SDS011;7044;53.286;8.534;2023-05-07T08:16:51;7.40;;;4.43;;
13943;SDS011;7044;53.286;8.534;2023-05-07T08:19:18;5.50;;;4.53;;
13943;SDS011;7044;53.286;8.534;2023-05-07T08:21:44;5.28;;;4.30;;
13943;SDS011;7044;53.286;8.534;2023-05-07T08:24:12;5.22;;;4.47;;
13943;SDS011;7044;53.286;8.534;2023-05-07T08:26:39;7.90;;;4.93;;
13943;SDS011;7044;53.286;8.534;2023-05-07T08:29:06;6.78;;;5.03;;
13943;SDS011;7044;53.286;8.534;2023-05-07T08:31:33;5.97;;;4.88;;
13943;SDS011;7044;53.286;8.534;2023-05-07T08:34:02;6.38;;;4.38;;
13943;SDS011;7044;53.286;8.534;2023-05-07T08:36:29;5.78;;;4.70;;
13943;SDS011;7044;53.286;8.534;2023-05-07T08:38:56;6.28;;;4.70;;
13943;SDS011;7044;53.286;8.534;2023-05-07T08:41:23;4.90;;;4.32;;
13943;SDS011;7044;53.286;8.534;2023-05-07T08:43:50;6.55;;;4.97;;
13943;SDS011;7044;53.286;8.534;2023-05-07T08:46:18;5.60;;;4.40;;
13943;SDS011;7044;53.286;8.534;2023-05-07T08:48:47;4.63;;;3.88;;
13943;SDS011;7044;53.286;8.534;2023-05-07T08:51:17;5.28;;;4.38;;
13943;SDS011;7044;53.286;8.534;2023-05-07T08:53:45;6.07;;;4.25;;
13943;SDS011;7044;53.286;8.534;2023-05-07T08:56:13;5.60;;;4.35;;
13943;SDS011;7044;53.286;8.534;2023-05-07T08:58:41;5.60;;;4.40;;
13943;SDS011;7044;53.286;8.534;2023-05-07T09:01:08;6.75;;;4.57;;
13943;SDS011;7044;53.286;8.534;2023-05-07T09:03:38;5.85;;;4.50;;
13943;SDS011;7044;53.286;8.534;2023-05-07T09:06:06;5.00;;;4.30;;
13943;SDS011;7044;53.286;8.534;2023-05-07T09:08:34;5.82;;;4.30;;
13943;SDS011;7044;53.286;8.534;2023-05-07T09:11:01;5.50;;;4.50;;
13943;SDS011;7044;53.286;8.534;2023-05-07T09:13:29;5.43;;;4.15;;
13943;SDS011;7044;53.286;8.534;2023-05-07T09:15:56;7.80;;;4.38;;
13943;SDS011;7044;53.286;8.534;2023-05-07T09:18:23;5.82;;;5.15;;
13943;SDS011;7044;53.286;8.534;2023-05-07T09:20:50;8.35;;;4.28;;
13943;SDS011;7044;53.286;8.534;2023-05-07T09:23:17;5.65;;;4.68;;
13943;SDS011;7044;53.286;8.534;2023-05-07T09:25:45;7.10;;;4.82;;
13943;SDS011;7044;53.286;8.534;2023-05-07T09:28:12;5.53;;;4.43;;
13943;SDS011;7044;53.286;8.534;2023-05-07T09:30:39;5.05;;;4.20;;
13943;SDS011;7044;53.286;8.534;2023-05-07T09:33:05;5.68;;;4.07;;
13943;SDS011;7044;53.286;8.534;2023-05-07T09:35:32;4.97;;;4.47;;
13943;SDS011;7044;53.286;8.534;2023-05-07T09:38:00;6.68;;;5.07;;
13943;SDS011;7044;53.286;8.534;2023-05-07T09:40:28;4.78;;;4.28;;
13943;SDS011;7044;53.286;8.534;2023-05-07T09:43:07;5.13;;;4.45;;
13943;SDS011;7044;53.286;8.534;2023-05-07T09:45:35;8.55;;;4.78;;
13943;SDS011;7044;53.286;8.534;2023-05-07T09:48:04;5.63;;;5.03;;
13943;SDS011;7044;53.286;8.534;2023-05-07T09:50:32;6.40;;;4.75;;
13943;SDS011;7044;53.286;8.534;2023-05-07T09:53:03;5.43;;;4.68;;
13943;SDS011;7044;53.286;8.534;2023-05-07T09:55:30;5.22;;;4.38;;
13943;SDS011;7044;53.286;8.534;2023-05-07T09:57:58;5.20;;;4.20;;
13943;SDS011;7044;53.286;8.534;2023-05-07T10:00:27;5.05;;;4.55;;
13943;SDS011;7044;53.286;8.534;2023-05-07T10:02:56;7.45;;;4.90;;
13943;SDS011;7044;53.286;8.534;2023-05-07T10:05:24;6.18;;;4.78;;
13943;SDS011;7044;53.286;8.534;2023-05-07T10:07:52;5.13;;;4.63;;
13943;SDS011;7044;53.286;8.534;2023-05-07T10:10:20;4.95;;;4.45;;
13943;SDS011;7044;53.286;8.534;2023-05-07T10:12:48;7.00;;;4.68;;
13943;SDS011;7044;53.286;8.534;2023-05-07T10:15:18;7.25;;;5.05;;
13943;SDS011;7044;53.286;8.534;2023-05-07T10:17:45;6.78;;;5.28;;
13943;SDS011;7044;53.286;8.534;2023-05-07T10:20:14;6.70;;;5.05;;
13943;SDS011;7044;53.286;8.534;2023-05-07T10:22:41;5.72;;;4.53;;
13943;SDS011;7044;53.286;8.534;2023-05-07T10:25:13;6.13;;;5.07;;
13943;SDS011;7044;53.286;8.534;2023-05-07T10:27:42;6.28;;;4.85;;
13943;SDS011;7044;53.286;8.534;2023-05-07T10:30:14;8.43;;;5.32;;
13943;SDS011;7044;53.286;8.534;2023-05-07T10:32:49;6.03;;;4.65;;
13943;SDS011;7044;53.286;8.534;2023-05-07T10:35:17;5.97;;;5.00;;
13943;SDS011;7044;53.286;8.534;2023-05-07T10:37:46;6.95;;;4.63;;
13943;SDS011;7044;53.286;8.534;2023-05-07T10:40:14;5.63;;;4.82;;
13943;SDS011;7044;53.286;8.534;2023-05-07T10:42:53;6.15;;;4.65;;
13943;SDS011;7044;53.286;8.534;2023-05-07T10:45:23;6.28;;;5.28;;
13943;SDS011;7044;53.286;8.534;2023-05-07T10:48:09;5.97;;;4.43;;
13943;SDS011;7044;53.286;8.534;2023-05-07T10:50:38;5.78;;;5.18;;
13943;SDS011;7044;53.286;8.534;2023-05-07T10:53:22;5.85;;;4.22;;
13943;SDS011;7044;53.286;8.534;2023-05-07T10:55:51;7.75;;;5.35;;
13943;SDS011;7044;53.286;8.534;2023-05-07T10:58:51;6.15;;;5.03;;
13943;SDS011;7044;53.286;8.534;2023-05-07T11:01:26;8.98;;;6.25;;
13943;SDS011;7044;53.286;8.534;2023-05-07T11:04:17;7.63;;;5.75;;
13943;SDS011;7044;53.286;8.534;2023-05-07T11:09:54;6.95;;;5.38;;
13943;SDS011;7044;53.286;8.534;2023-05-07T11:12:49;7.85;;;6.15;;
13943;SDS011;7044;53.286;8.534;2023-05-07T11:18:05;7.50;;;5.93;;
13943;SDS011;7044;53.286;8.534;2023-05-07T11:20:51;9.40;;;5.75;;
13943;SDS011;7044;53.286;8.534;2023-05-07T11:26:21;8.43;;;5.40;;
13943;SDS011;7044;53.286;8.534;2023-05-07T11:28:48;6.53;;;5.07;;
13943;SDS011;7044;53.286;8.534;2023-05-07T11:31:17;6.75;;;5.55;;
13943;SDS011;7044;53.286;8.534;2023-05-07T11:33:49;6.10;;;5.00;;
13943;SDS011;7044;53.286;8.534;2023-05-07T11:36:16;5.63;;;4.90;;
13943;SDS011;7044;53.286;8.534;2023-05-07T11:38:44;5.35;;;4.57;;
13943;SDS011;7044;53.286;8.534;2023-05-07T11:41:11;7.32;;;5.20;;
13943;SDS011;7044;53.286;8.534;2023-05-07T11:43:40;6.25;;;5.13;;
13943;SDS011;7044;53.286;8.534;2023-05-07T11:46:23;8.45;;;5.25;;
13943;SDS011;7044;53.286;8.534;2023-05-07T11:48:51;7.03;;;5.13;;
13943;SDS011;7044;53.286;8.534;2023-05-07T11:51:18;11.23;;;5.40;;
13943;SDS011;7044;53.286;8.534;2023-05-07T11:53:46;6.07;;;5.32;;
13943;SDS011;7044;53.286;8.534;2023-05-07T11:56:13;5.18;;;4.65;;
13943;SDS011;7044;53.286;8.534;2023-05-07T11:58:42;5.93;;;5.28;;
13943;SDS011;7044;53.286;8.534;2023-05-07T12:01:10;6.13;;;5.35;;
13943;SDS011;7044;53.286;8.534;2023-05-07T12:03:39;6.25;;;5.35;;
13943;SDS011;7044;53.286;8.534;2023-05-07T12:06:10;9.82;;;5.00;;
13943;SDS011;7044;53.286;8.534;2023-05-07T12:08:37;6.25;;;4.82;;
13943;SDS011;7044;53.286;8.534;2023-05-07T12:11:07;5.82;;;5.10;;
13943;SDS011;7044;53.286;8.534;2023-05-07T12:13:36;6.28;;;5.45;;
13943;SDS011;7044;53.286;8.534;2023-05-07T12:16:03;5.38;;;4.82;;
13943;SDS011;7044;53.286;8.534;2023-05-07T12:18:32;7.68;;;5.30;;
13943;SDS011;7044;53.286;8.534;2023-05-07T12:21:00;6.50;;;5.55;;
13943;SDS011;7044;53.286;8.534;2023-05-07T12:23:29;5.55;;;5.05;;
13943;SDS011;7044;53.286;8.534;2023-05-07T12:25:56;6.05;;;4.80;;
13943;SDS011;7044;53.286;8.534;2023-05-07T12:28:23;6.75;;;5.07;;
13943;SDS011;7044;53.286;8.534;2023-05-07T12:30:50;5.80;;;4.78;;
13943;SDS011;7044;53.286;8.534;2023-05-07T12:33:18;6.20;;;5.25;;
13943;SDS011;7044;53.286;8.534;2023-05-07T12:35:46;6.53;;;5.25;;
13943;SDS011;7044;53.286;8.534;2023-05-07T12:38:14;6.63;;;5.20;;
13943;SDS011;7044;53.286;8.534;2023-05-07T12:40:44;7.28;;;5.07;;
13943;SDS011;7044;53.286;8.534;2023-05-07T12:43:15;10.13;;;4.85;;
13943;SDS011;7044;53.286;8.534;2023-05-07T12:45:43;5.47;;;4.78;;
13943;SDS011;7044;53.286;8.534;2023-05-07T12:48:10;12.48;;;5.13;;
13943;SDS011;7044;53.286;8.534;2023-05-07T12:50:38;7.28;;;4.78;;
13943;SDS011;7044;53.286;8.534;2023-05-07T12:53:05;5.88;;;5.15;;
13943;SDS011;7044;53.286;8.534;2023-05-07T12:55:34;7.82;;;4.88;;
13943;SDS011;7044;53.286;8.534;2023-05-07T12:58:09;6.82;;;4.70;;
13943;SDS011;7044;53.286;8.534;2023-05-07T13:00:42;5.38;;;4.88;;
13943;SDS011;7044;53.286;8.534;2023-05-07T13:03:09;6.63;;;4.88;;
13943;SDS011;7044;53.286;8.534;2023-05-07T13:05:36;8.10;;;4.57;;
13943;SDS011;7044;53.286;8.534;2023-05-07T13:08:02;8.30;;;5.00;;
13943;SDS011;7044;53.286;8.534;2023-05-07T13:10:30;5.13;;;4.40;;
13943;SDS011;7044;53.286;8.534;2023-05-07T13:12:57;4.75;;;4.22;;
13943;SDS011;7044;53.286;8.534;2023-05-07T13:15:26;4.95;;;4.43;;
13943;SDS011;7044;53.286;8.534;2023-05-07T13:17:53;5.10;;;4.60;;
13943;SDS011;7044;53.286;8.534;2023-05-07T13:20:20;7.03;;;4.30;;
13943;SDS011;7044;53.286;8.534;2023-05-07T13:22:47;5.00;;;4.50;;
13943;SDS011;7044;53.286;8.534;2023-05-07T13:25:13;6.75;;;4.25;;
13943;SDS011;7044;53.286;8.534;2023-05-07T13:27:40;6.30;;;4.70;;
13943;SDS011;7044;53.286;8.534;2023-05-07T13:30:07;4.93;;;4.22;;
13943;SDS011;7044;53.286;8.534;2023-05-07T13:32:35;6.32;;;4.30;;
13943;SDS011;7044;53.286;8.534;2023-05-07T13:35:02;6.45;;;4.35;;
13943;SDS011;7044;53.286;8.534;2023-05-07T13:37:30;4.60;;;4.05;;
13943;SDS011;7044;53.286;8.534;2023-05-07T13:39:56;4.50;;;3.97;;
13943;SDS011;7044;53.286;8.534;2023-05-07T13:42:23;5.05;;;4.25;;
13943;SDS011;7044;53.286;8.534;2023-05-07T13:44:50;6.93;;;4.47;;
13943;SDS011;7044;53.286;8.534;2023-05-07T13:47:17;5.55;;;4.20;;
13943;SDS011;7044;53.286;8.534;2023-05-07T13:49:45;4.78;;;4.13;;
13943;SDS011;7044;53.286;8.534;2023-05-07T13:52:14;4.63;;;3.83;;
13943;SDS011;7044;53.286;8.534;2023-05-07T13:54:41;6.55;;;3.90;;
13943;SDS011;7044;53.286;8.534;2023-05-07T13:57:08;4.65;;;3.95;;
13943;SDS011;7044;53.286;8.534;2023-05-07T13:59:34;6.45;;;4.40;;
13943;SDS011;7044;53.286;8.534;2023-05-07T14:02:01;7.57;;;3.90;;
13943;SDS011;7044;53.286;8.534;2023-05-07T14:04:28;4.45;;;4.00;;
13943;SDS011;7044;53.286;8.534;2023-05-07T14:06:58;4.85;;;3.90;;
13943;SDS011;7044;53.286;8.534;2023-05-07T14:09:25;4.05;;;3.55;;
13943;SDS011;7044;53.286;8.534;2023-05-07T14:11:51;4.57;;;3.83;;
13943;SDS011;7044;53.286;8.534;2023-05-07T14:14:18;3.88;;;3.50;;
13943;SDS011;7044;53.286;8.534;2023-05-07T14:16:45;4.97;;;3.70;;
13943;SDS011;7044;53.286;8.534;2023-05-07T14:19:12;3.22;;;2.92;;
13943;SDS011;7044;53.286;8.534;2023-05-07T14:21:39;4.80;;;3.47;;
13943;SDS011;7044;53.286;8.534;2023-05-07T14:24:08;5.22;;;3.70;;
13943;SDS011;7044;53.286;8.534;2023-05-07T14:26:35;5.40;;;4.10;;
13943;SDS011;7044;53.286;8.534;2023-05-07T14:29:02;3.95;;;3.65;;
13943;SDS011;7044;53.286;8.534;2023-05-07T14:31:29;5.72;;;3.65;;
13943;SDS011;7044;53.286;8.534;2023-05-07T14:33:55;4.22;;;3.45;;
13943;SDS011;7044;53.286;8.534;2023-05-07T14:36:24;3.92;;;3.33;;
13943;SDS011;7044;53.286;8.534;2023-05-07T14:38:52;3.92;;;3.53;;
13943;SDS011;7044;53.286;8.534;2023-05-07T14:41:21;3.63;;;3.17;;
13943;SDS011;7044;53.286;8.534;2023-05-07T14:43:48;4.40;;;3.65;;
13943;SDS011;7044;53.286;8.534;2023-05-07T14:46:16;4.68;;;3.25;;
13943;SDS011;7044;53.286;8.534;2023-05-07T14:48:43;4.07;;;3.63;;
13943;SDS011;7044;53.286;8.534;2023-05-07T14:51:11;3.75;;;3.35;;
13943;SDS011;7044;53.286;8.534;2023-05-07T14:53:38;6.13;;;3.85;;
13943;SDS011;7044;53.286;8.534;2023-05-07T14:56:06;4.85;;;3.80;;
13943;SDS011;7044;53.286;8.534;2023-05-07T14:58:34;5.32;;;3.90;;
13943;SDS011;7044;53.286;8.534;2023-05-07T15:01:02;5.57;;;3.90;;
13943;SDS011;7044;53.286;8.534;2023-05-07T15:03:29;4.07;;;3.53;;
13943;SDS011;7044;53.286;8.534;2023-05-07T15:05:56;4.43;;;3.70;;
13943;SDS011;7044;53.286;8.534;2023-05-07T15:08:23;4.85;;;3.75;;
13943;SDS011;7044;53.286;8.534;2023-05-07T15:10:49;4.28;;;3.05;;